Decoded Metar for OITR (ORUMIEH in IRAN) (IATA:N/A) | Meteo·Mobile Aviation Weather
aviador You're here:

OITR Decoded Metar

ORUMIEH in IRAN
Report Time2018-10-15 19:00:00
UTC Time2018-10-15 19:20:39
Flight Rules vfr VFR
WindCalm
Visibility9999 m
Phenomena:N/A
Clouds:Few 040 Hf
Expected CloudBase > 1,600 ft AGL from Temp-Dew spread
CeilingNone
Temp11°C (ISA +5)
Dew Point07°C (77% RH)
AAT10.3°C
QNH1023 hPa
Density Alt4,652 ft
Elevation4,304 ft
Report Wrong Elevation
Raw Report
OITR 151900Z 00000KT 9999 FEW040 11/07 Q1023=

Extra information for OITR:More info

Metar Taf Metar & Taf Last 4 Metars F.Rules Stats Wind Profile Meteogram Temp Stats Airport Information Weather charts Add Link Nearby VenuesMetar ALERT Operation Metar Decoded Social comments